createdAt,value
2019-03-11T00:00:32.977Z,8.30
2019-03-11T00:03:01.827Z,8.30
2019-03-11T00:05:30.661Z,8.30
2019-03-11T00:07:59.541Z,8.40
2019-03-11T00:10:28.338Z,8.40
2019-03-11T00:12:57.221Z,8.30
2019-03-11T00:15:26.047Z,8.30
2019-03-11T00:17:54.927Z,8.20
2019-03-11T00:20:23.738Z,8.10
2019-03-11T00:22:52.729Z,8.10
2019-03-11T00:25:21.646Z,8.00
2019-03-11T00:27:50.519Z,7.90
2019-03-11T00:30:19.412Z,7.80
2019-03-11T00:32:48.250Z,7.70
2019-03-11T00:35:17.068Z,7.60
2019-03-11T00:37:45.949Z,7.60
2019-03-11T00:40:17.725Z,7.50
2019-03-11T00:42:46.561Z,7.50
2019-03-11T00:45:16.181Z,7.50
2019-03-11T00:47:45.042Z,7.60
2019-03-11T00:50:14.058Z,7.60
2019-03-11T00:52:43.069Z,7.50
2019-03-11T00:55:13.210Z,7.50
2019-03-11T00:57:42.158Z,7.50
2019-03-11T01:00:34.325Z,7.50
2019-03-11T01:03:03.102Z,7.50
2019-03-11T01:05:31.963Z,7.60
2019-03-11T01:08:00.831Z,7.50
2019-03-11T01:10:29.684Z,7.50
2019-03-11T01:12:58.553Z,7.50
2019-03-11T01:15:27.349Z,7.50
2019-03-11T01:17:56.196Z,7.50
2019-03-11T01:20:25.000Z,7.40
2019-03-11T01:22:53.859Z,7.40
2019-03-11T01:25:22.743Z,7.40
2019-03-11T01:27:53.238Z,7.30
2019-03-11T01:30:22.045Z,7.30
2019-03-11T01:32:50.895Z,7.30
2019-03-11T01:35:19.741Z,7.30
2019-03-11T01:37:48.628Z,7.30
2019-03-11T01:40:18.433Z,7.20
2019-03-11T01:42:47.305Z,7.20
2019-03-11T01:45:17.859Z,7.20
2019-03-11T01:47:46.873Z,7.10
2019-03-11T01:50:15.781Z,7.10
2019-03-11T01:52:44.665Z,7.10
2019-03-11T01:55:14.499Z,7.10
2019-03-11T01:57:43.405Z,7.00
2019-03-11T02:00:15.289Z,7.00
2019-03-11T02:02:44.145Z,6.90
2019-03-11T02:05:13.036Z,6.90
2019-03-11T02:07:41.879Z,6.80
2019-03-11T02:10:13.451Z,6.90
2019-03-11T02:12:42.368Z,6.90
2019-03-11T02:15:17.282Z,6.80
2019-03-11T02:17:46.590Z,6.70
2019-03-11T02:20:16.656Z,6.70
2019-03-11T02:22:45.611Z,6.60
2019-03-11T02:25:14.853Z,6.60
2019-03-11T02:27:43.792Z,6.60
2019-03-11T02:30:17.114Z,6.60
2019-03-11T02:32:46.065Z,6.60
2019-03-11T02:35:20.660Z,6.60
2019-03-11T02:37:49.517Z,6.50
2019-03-11T02:40:18.408Z,6.40
2019-03-11T02:42:47.278Z,6.40
2019-03-11T02:45:16.121Z,6.40
2019-03-11T02:47:45.000Z,6.40
2019-03-11T02:50:13.841Z,6.30
2019-03-11T02:52:42.681Z,6.30
2019-03-11T02:55:11.686Z,6.30
2019-03-11T02:57:40.577Z,6.30
2019-03-11T03:00:15.955Z,6.40
2019-03-11T03:02:55.486Z,6.30
2019-03-11T03:05:25.916Z,6.30
2019-03-11T03:07:54.736Z,6.30
2019-03-11T03:10:23.601Z,6.30
2019-03-11T03:12:52.453Z,6.20
2019-03-11T03:15:21.277Z,6.10
2019-03-11T03:17:50.171Z,6.00
2019-03-11T03:20:18.959Z,5.90
2019-03-11T03:22:47.832Z,5.90
2019-03-11T03:25:16.632Z,5.80
2019-03-11T03:27:45.552Z,5.80
2019-03-11T03:30:18.839Z,5.70
2019-03-11T03:32:47.705Z,5.60
2019-03-11T03:35:16.568Z,5.60
2019-03-11T03:37:45.458Z,5.50
2019-03-11T03:40:15.823Z,5.50
2019-03-11T03:42:44.765Z,5.60
2019-03-11T03:45:24.373Z,5.60
2019-03-11T03:47:53.293Z,5.60
2019-03-11T03:50:33.869Z,5.50
2019-03-11T03:53:02.706Z,5.50
2019-03-11T03:55:31.553Z,5.40
2019-03-11T03:58:00.460Z,5.30
2019-03-11T04:00:29.291Z,5.40
2019-03-11T04:02:58.142Z,5.30
2019-03-11T04:05:26.951Z,5.20
2019-03-11T04:07:55.762Z,5.20
2019-03-11T04:10:24.677Z,5.20
2019-03-11T04:12:53.463Z,5.20
2019-03-11T04:15:22.383Z,5.10
2019-03-11T04:17:51.245Z,5.10
2019-03-11T04:20:21.819Z,5.10
2019-03-11T04:22:50.773Z,5.10
2019-03-11T04:25:19.628Z,5.00
2019-03-11T04:27:48.577Z,5.00
2019-03-11T04:30:25.121Z,5.00
2019-03-11T04:32:53.985Z,5.00
2019-03-11T04:35:22.876Z,5.00
2019-03-11T04:37:51.855Z,4.90
2019-03-11T04:40:20.644Z,4.90
2019-03-11T04:42:49.532Z,5.00
2019-03-11T04:45:18.662Z,5.00
2019-03-11T04:47:47.646Z,4.90
2019-03-11T04:50:17.442Z,4.90
2019-03-11T04:52:46.241Z,4.90
2019-03-11T04:55:16.539Z,4.90
2019-03-11T04:57:50.482Z,4.80
2019-03-11T05:00:21.755Z,4.80
2019-03-11T05:02:51.420Z,4.90
2019-03-11T05:05:20.233Z,4.90
2019-03-11T05:07:49.147Z,4.90
2019-03-11T05:10:17.952Z,4.80
2019-03-11T05:12:46.861Z,4.80
2019-03-11T05:15:15.692Z,4.70
2019-03-11T05:17:44.600Z,4.70
2019-03-11T05:20:17.280Z,4.60
2019-03-11T05:22:46.169Z,4.60
2019-03-11T05:25:15.827Z,4.50
2019-03-11T05:27:44.745Z,4.50
2019-03-11T05:30:20.676Z,4.60
2019-03-11T05:32:49.544Z,4.60
2019-03-11T05:35:18.358Z,4.70
2019-03-11T05:37:47.191Z,4.70
2019-03-11T05:40:18.031Z,4.70
2019-03-11T05:42:46.903Z,4.70
2019-03-11T05:45:17.602Z,4.80
2019-03-11T05:47:46.560Z,4.80
2019-03-11T05:50:19.052Z,4.80
2019-03-11T05:52:47.916Z,4.80
2019-03-11T05:55:17.115Z,4.80
2019-03-11T05:57:45.940Z,4.80
2019-03-11T06:00:26.196Z,4.80
2019-03-11T06:02:55.020Z,4.80
2019-03-11T06:05:23.854Z,4.90
2019-03-11T06:07:52.701Z,4.90
2019-03-11T06:10:21.552Z,4.90
2019-03-11T06:12:50.448Z,4.80
2019-03-11T06:15:19.220Z,4.80
2019-03-11T06:17:48.181Z,4.80
2019-03-11T06:20:25.543Z,4.80
2019-03-11T06:22:54.348Z,4.80
2019-03-11T06:25:23.238Z,4.80
2019-03-11T06:27:52.044Z,4.70
2019-03-11T06:30:20.873Z,4.80
2019-03-11T06:32:49.721Z,4.80
2019-03-11T06:35:18.545Z,4.90
2019-03-11T06:37:47.356Z,4.80
2019-03-11T06:40:16.223Z,4.90
2019-03-11T06:42:45.102Z,4.90
2019-03-11T06:45:15.020Z,4.90
2019-03-11T06:47:43.914Z,5.00
2019-03-11T06:50:13.952Z,5.00
2019-03-11T06:52:42.843Z,5.00
2019-03-11T06:55:12.628Z,5.00
2019-03-11T06:57:41.478Z,5.00
2019-03-11T07:00:15.653Z,5.00
2019-03-11T07:02:44.572Z,5.10
2019-03-11T07:05:19.811Z,5.20
2019-03-11T07:07:43.847Z,5.20
2019-03-11T07:10:16.453Z,5.30
2019-03-11T07:12:45.299Z,5.30
2019-03-11T07:15:15.696Z,5.30
2019-03-11T07:17:44.856Z,5.30
2019-03-11T07:20:18.923Z,5.40
2019-03-11T07:22:47.772Z,5.40
2019-03-11T07:25:16.613Z,5.40
2019-03-11T07:27:45.492Z,5.40
2019-03-11T07:30:16.407Z,5.50
2019-03-11T07:32:45.323Z,5.60
2019-03-11T07:35:14.266Z,5.70
2019-03-11T07:37:43.132Z,5.80
2019-03-11T07:40:16.261Z,6.00
2019-03-11T07:42:45.100Z,6.10
2019-03-11T07:45:15.155Z,6.20
2019-03-11T07:47:43.956Z,6.20
2019-03-11T07:50:14.842Z,6.30
2019-03-11T07:52:43.643Z,6.40
2019-03-11T07:55:14.068Z,6.50
2019-03-11T07:57:42.877Z,6.70
2019-03-11T08:00:14.685Z,6.70
2019-03-11T08:02:43.510Z,6.80
2019-03-11T08:05:12.457Z,7.00
2019-03-11T08:07:41.294Z,7.10
2019-03-11T08:10:24.082Z,7.10
2019-03-11T08:12:53.158Z,7.20
2019-03-11T08:15:22.014Z,7.40
2019-03-11T08:17:50.774Z,7.60
2019-03-11T08:20:19.638Z,7.80
2019-03-11T08:22:48.535Z,7.80
2019-03-11T08:25:25.897Z,7.90
2019-03-11T08:27:54.777Z,8.00
2019-03-11T08:30:23.723Z,8.20
2019-03-11T08:32:52.626Z,8.40
2019-03-11T08:35:21.468Z,8.70
2019-03-11T08:37:50.291Z,9.00
2019-03-11T08:40:20.288Z,9.30
2019-03-11T08:42:49.113Z,9.50
2019-03-11T08:45:18.845Z,9.70
2019-03-11T08:47:47.767Z,10.00
2019-03-11T08:50:16.963Z,10.30
2019-03-11T08:52:45.839Z,10.20
2019-03-11T08:55:14.843Z,10.00
2019-03-11T08:57:43.785Z,9.80
2019-03-11T09:00:20.240Z,9.70
2019-03-11T09:02:49.081Z,9.70
2019-03-11T09:05:17.922Z,9.60
2019-03-11T09:07:46.731Z,9.40
2019-03-11T09:10:17.459Z,9.60
2019-03-11T09:12:46.345Z,9.70
2019-03-11T09:15:17.335Z,9.80
2019-03-11T09:17:46.134Z,10.20
2019-03-11T09:20:16.296Z,10.30
2019-03-11T09:22:45.151Z,10.40
2019-03-11T09:25:16.431Z,10.50
2019-03-11T09:27:45.300Z,10.60
2019-03-11T09:30:16.636Z,10.80
2019-03-11T09:32:45.552Z,10.90
2019-03-11T09:35:14.413Z,10.70
2019-03-11T09:37:43.208Z,10.70
2019-03-11T09:40:14.621Z,10.60
2019-03-11T09:42:43.450Z,10.50
2019-03-11T09:45:15.075Z,10.50
2019-03-11T09:47:43.894Z,10.80
2019-03-11T09:50:18.844Z,10.90
2019-03-11T09:52:47.709Z,10.90
2019-03-11T09:55:24.776Z,10.70
2019-03-11T09:57:53.780Z,10.50
2019-03-11T10:00:30.485Z,10.40
2019-03-11T10:02:59.350Z,10.40
2019-03-11T10:05:28.237Z,10.20
2019-03-11T10:07:57.186Z,9.90
2019-03-11T10:10:27.880Z,9.60
2019-03-11T10:12:56.738Z,9.60
2019-03-11T10:15:25.662Z,9.80
2019-03-11T10:17:54.541Z,10.20
2019-03-11T10:20:23.416Z,10.50
2019-03-11T10:22:52.248Z,10.90
2019-03-11T10:25:21.639Z,11.00
2019-03-11T10:27:50.510Z,11.30
2019-03-11T10:30:25.123Z,11.50
2019-03-11T10:32:53.936Z,11.60
2019-03-11T10:35:38.116Z,11.80
2019-03-11T10:37:53.246Z,12.00
2019-03-11T10:40:26.272Z,11.80
2019-03-11T10:42:55.138Z,11.60
2019-03-11T10:45:31.214Z,11.40
2019-03-11T10:47:54.532Z,11.20
2019-03-11T10:50:23.503Z,11.20
2019-03-11T10:52:52.368Z,11.20
2019-03-11T10:55:25.096Z,11.30
2019-03-11T10:57:54.049Z,11.30
2019-03-11T11:00:28.138Z,11.30
2019-03-11T11:02:57.017Z,11.50
2019-03-11T11:05:25.848Z,11.20
2019-03-11T11:07:55.397Z,11.20
2019-03-11T11:10:24.310Z,11.10
2019-03-11T11:12:53.250Z,10.70
2019-03-11T11:15:25.084Z,10.60
2019-03-11T11:17:53.929Z,10.60
2019-03-11T11:20:23.793Z,10.50
2019-03-11T11:22:53.801Z,10.40
2019-03-11T11:25:24.040Z,10.40
2019-03-11T11:27:53.076Z,10.50
2019-03-11T11:30:24.640Z,10.80
2019-03-11T11:32:53.653Z,11.00
2019-03-11T11:35:22.488Z,11.10
2019-03-11T11:37:51.357Z,11.20
2019-03-11T11:40:24.684Z,11.50
2019-03-11T11:42:53.531Z,11.90
2019-03-11T11:45:23.852Z,12.40
2019-03-11T11:47:52.673Z,12.40
2019-03-11T11:50:23.511Z,12.50
2019-03-11T11:52:53.555Z,12.70
2019-03-11T11:55:23.201Z,12.90
2019-03-11T11:57:52.338Z,12.70
2019-03-11T12:00:25.213Z,12.50
2019-03-11T12:02:54.126Z,12.50
2019-03-11T12:05:23.080Z,12.40
2019-03-11T12:07:52.057Z,12.60
2019-03-11T12:10:31.389Z,12.50
2019-03-11T12:13:00.296Z,12.30
2019-03-11T12:15:29.141Z,12.00
2019-03-11T12:17:57.977Z,11.70
2019-03-11T12:20:28.675Z,11.10
2019-03-11T12:22:57.526Z,10.70
2019-03-11T12:25:26.360Z,10.50
2019-03-11T12:27:57.919Z,10.60
2019-03-11T12:30:33.660Z,10.90
2019-03-11T12:33:02.453Z,11.10
2019-03-11T12:35:31.507Z,11.40
2019-03-11T12:38:00.385Z,11.50
2019-03-11T12:40:29.227Z,11.50
2019-03-11T12:42:58.079Z,11.30
2019-03-11T12:45:27.380Z,10.90
2019-03-11T12:47:56.259Z,10.40
2019-03-11T12:50:32.677Z,10.10
2019-03-11T12:53:01.555Z,10.20
2019-03-11T12:55:30.420Z,10.00
2019-03-11T12:57:59.267Z,9.80
2019-03-11T13:00:28.130Z,9.70
2019-03-11T13:02:57.010Z,9.80
2019-03-11T13:05:25.876Z,9.60
2019-03-11T13:07:54.722Z,9.70
2019-03-11T13:10:27.476Z,9.70
2019-03-11T13:12:56.466Z,9.60
2019-03-11T13:15:25.308Z,9.50
2019-03-11T13:17:54.110Z,9.20
2019-03-11T13:20:25.894Z,9.10
2019-03-11T13:22:54.753Z,8.80
2019-03-11T13:25:23.581Z,8.80
2019-03-11T13:27:52.455Z,8.50
2019-03-11T13:30:21.277Z,8.40
2019-03-11T13:32:50.124Z,8.60
2019-03-11T13:35:18.950Z,8.50
2019-03-11T13:37:47.782Z,8.30
2019-03-11T13:40:17.271Z,8.10
2019-03-11T13:42:46.130Z,7.90
2019-03-11T13:45:20.766Z,7.70
2019-03-11T13:47:49.576Z,7.40
2019-03-11T13:50:19.136Z,7.30
2019-03-11T13:52:48.093Z,7.40
2019-03-11T13:55:17.776Z,7.40
2019-03-11T13:57:46.700Z,7.20
2019-03-11T14:00:17.988Z,7.10
2019-03-11T14:02:46.840Z,7.30
2019-03-11T14:05:15.643Z,7.40
2019-03-11T14:07:44.520Z,7.50
2019-03-11T14:10:14.487Z,7.50
2019-03-11T14:12:43.289Z,7.50
2019-03-11T14:15:21.652Z,7.50
2019-03-11T14:17:50.508Z,7.60
2019-03-11T14:20:19.370Z,7.50
2019-03-11T14:22:48.244Z,7.40
2019-03-11T14:25:17.175Z,7.40
2019-03-11T14:27:45.983Z,7.40
2019-03-11T14:30:18.747Z,7.30
2019-03-11T14:32:47.651Z,7.30
2019-03-11T14:35:16.485Z,7.20
2019-03-11T14:37:45.348Z,7.20
2019-03-11T14:40:18.061Z,7.20
2019-03-11T14:42:46.989Z,7.00
2019-03-11T14:45:23.711Z,6.80
2019-03-11T14:47:52.519Z,6.90
2019-03-11T14:50:21.388Z,6.70
2019-03-11T14:52:50.216Z,6.60
2019-03-11T14:55:19.190Z,6.50
2019-03-11T14:57:48.008Z,6.30
2019-03-11T15:00:19.823Z,6.30
2019-03-11T15:02:48.956Z,6.20
2019-03-11T15:05:18.879Z,6.30
2019-03-11T15:07:48.052Z,6.20
2019-03-11T15:10:18.391Z,6.10
2019-03-11T15:12:47.823Z,6.00
2019-03-11T15:15:18.969Z,5.90
2019-03-11T15:17:47.915Z,5.90
2019-03-11T15:20:16.820Z,5.80
2019-03-11T15:22:45.720Z,5.80
2019-03-11T15:25:15.530Z,5.70
2019-03-11T15:27:44.512Z,5.60
2019-03-11T15:30:16.524Z,5.60
2019-03-11T15:32:45.386Z,5.60
2019-03-11T15:35:14.510Z,5.60
2019-03-11T15:37:43.384Z,5.50
2019-03-11T15:40:16.720Z,5.50
2019-03-11T15:42:45.609Z,5.40
2019-03-11T15:45:18.329Z,5.20
2019-03-11T15:47:47.293Z,5.20
2019-03-11T15:50:27.645Z,5.20
2019-03-11T15:52:56.533Z,5.10
2019-03-11T15:55:25.360Z,5.00
2019-03-11T15:57:54.321Z,5.00
2019-03-11T16:00:24.229Z,4.90
2019-03-11T16:02:53.235Z,4.90
2019-03-11T16:05:26.724Z,4.90
2019-03-11T16:07:56.062Z,4.90
2019-03-11T16:10:24.970Z,4.90
2019-03-11T16:12:53.839Z,4.80
2019-03-11T16:15:22.648Z,4.80
2019-03-11T16:17:51.490Z,4.80
2019-03-11T16:20:22.713Z,4.80
2019-03-11T16:22:51.545Z,4.80
2019-03-11T16:25:20.499Z,4.70
2019-03-11T16:27:49.421Z,4.70
2019-03-11T16:30:28.401Z,4.70
2019-03-11T16:32:59.969Z,4.70
2019-03-11T16:35:28.925Z,4.60
2019-03-11T16:37:57.781Z,4.60
2019-03-11T16:40:26.877Z,4.50
2019-03-11T16:42:55.689Z,4.50
2019-03-11T16:45:24.944Z,4.50
2019-03-11T16:47:53.789Z,4.50
2019-03-11T16:50:26.960Z,4.40
2019-03-11T16:52:55.856Z,4.40
2019-03-11T16:55:38.518Z,4.40
2019-03-11T16:58:07.406Z,4.30
2019-03-11T17:00:37.785Z,4.30
2019-03-11T17:03:07.168Z,4.30
2019-03-11T17:05:36.062Z,4.30
2019-03-11T17:08:05.096Z,4.30
2019-03-11T17:10:34.085Z,4.20
2019-03-11T17:13:02.885Z,4.20
2019-03-11T17:15:31.718Z,4.20
2019-03-11T17:18:00.540Z,4.20
2019-03-11T17:20:29.476Z,4.10
2019-03-11T17:22:58.418Z,4.10
2019-03-11T17:25:27.248Z,4.10
2019-03-11T17:27:56.158Z,4.10
2019-03-11T17:30:26.914Z,4.10
2019-03-11T17:32:55.849Z,4.00
2019-03-11T17:35:24.902Z,4.00
2019-03-11T17:37:53.898Z,3.90
2019-03-11T17:40:28.177Z,3.90
2019-03-11T17:42:57.121Z,3.90
2019-03-11T17:45:25.907Z,3.80
2019-03-11T17:47:54.933Z,3.80
2019-03-11T17:50:24.547Z,3.80
2019-03-11T17:52:53.622Z,3.70
2019-03-11T17:55:22.536Z,3.70
2019-03-11T17:57:51.430Z,3.70
2019-03-11T18:00:26.128Z,3.70
2019-03-11T18:02:55.295Z,3.70
2019-03-11T18:05:24.326Z,3.70
2019-03-11T18:07:53.266Z,3.70
2019-03-11T18:10:22.137Z,3.70
2019-03-11T18:12:51.049Z,3.60
2019-03-11T18:15:20.049Z,3.60
2019-03-11T18:17:49.007Z,3.60
2019-03-11T18:20:20.340Z,3.60
2019-03-11T18:22:49.686Z,3.60
2019-03-11T18:25:19.955Z,3.60
2019-03-11T18:27:48.965Z,3.60
2019-03-11T18:30:31.932Z,3.50
2019-03-11T18:33:00.778Z,3.50
2019-03-11T18:35:29.730Z,3.50
2019-03-11T18:38:04.048Z,3.40
2019-03-11T18:40:29.318Z,3.40
2019-03-11T18:42:58.158Z,3.40
2019-03-11T18:45:27.147Z,3.30
2019-03-11T18:47:56.155Z,3.30
2019-03-11T18:50:25.504Z,3.30
2019-03-11T18:52:54.503Z,3.30
2019-03-11T18:55:23.502Z,3.30
2019-03-11T18:57:52.349Z,3.30
2019-03-11T19:00:22.447Z,3.20
2019-03-11T19:02:51.567Z,3.20
2019-03-11T19:05:21.711Z,3.20
2019-03-11T19:07:50.511Z,3.10
2019-03-11T19:10:19.569Z,3.10
2019-03-11T19:12:50.156Z,3.10
2019-03-11T19:15:26.124Z,3.00
2019-03-11T19:17:54.932Z,3.00
2019-03-11T19:20:24.745Z,3.00
2019-03-11T19:22:53.667Z,3.10
2019-03-11T19:25:22.764Z,3.00
2019-03-11T19:27:51.590Z,3.10
2019-03-11T19:30:22.704Z,3.00
2019-03-11T19:32:51.820Z,3.00
2019-03-11T19:35:20.888Z,3.10
2019-03-11T19:37:49.922Z,3.10
2019-03-11T19:40:21.053Z,3.00
2019-03-11T19:42:50.247Z,3.00
2019-03-11T19:45:19.294Z,3.10
2019-03-11T19:47:48.130Z,3.00
2019-03-11T19:50:18.801Z,3.10
2019-03-11T19:52:57.897Z,3.10
2019-03-11T19:55:18.645Z,3.10
2019-03-11T19:57:47.600Z,3.10
2019-03-11T20:00:18.862Z,3.20
2019-03-11T20:02:47.937Z,3.20
2019-03-11T20:05:19.583Z,3.30
2019-03-11T20:07:48.392Z,3.30
2019-03-11T20:10:17.698Z,3.30
2019-03-11T20:12:46.750Z,3.30
2019-03-11T20:15:16.036Z,3.30
2019-03-11T20:17:45.049Z,3.30
2019-03-11T20:20:16.412Z,3.30
2019-03-11T20:22:45.360Z,3.20
2019-03-11T20:25:23.133Z,3.20
2019-03-11T20:27:52.118Z,3.20
2019-03-11T20:30:22.792Z,3.20
2019-03-11T20:32:51.719Z,3.20
2019-03-11T20:35:20.635Z,3.20
2019-03-11T20:37:49.490Z,3.10
2019-03-11T20:40:18.464Z,3.20
2019-03-11T20:42:47.449Z,3.10
2019-03-11T20:45:19.167Z,3.10
2019-03-11T20:47:48.105Z,3.10
2019-03-11T20:50:18.260Z,3.10
2019-03-11T20:52:47.391Z,3.00
2019-03-11T20:55:17.617Z,3.00
2019-03-11T20:57:46.543Z,3.00
2019-03-11T21:00:22.660Z,2.90
2019-03-11T21:02:51.766Z,2.90
2019-03-11T21:05:31.141Z,2.90
2019-03-11T21:07:59.988Z,2.90
2019-03-11T21:10:28.849Z,2.90
2019-03-11T21:12:57.714Z,2.80
2019-03-11T21:15:26.516Z,2.80
2019-03-11T21:17:55.371Z,2.80
2019-03-11T21:20:24.248Z,2.80
2019-03-11T21:22:53.322Z,2.80
2019-03-11T21:25:22.599Z,2.70
2019-03-11T21:27:52.467Z,2.70
2019-03-11T21:30:22.803Z,2.70
2019-03-11T21:32:51.673Z,2.70
2019-03-11T21:35:20.779Z,2.70
2019-03-11T21:37:50.325Z,2.70
2019-03-11T21:40:22.792Z,2.70
2019-03-11T21:42:51.784Z,2.70
2019-03-11T21:45:32.906Z,2.70
2019-03-11T21:47:51.412Z,2.70
2019-03-11T21:50:24.803Z,2.70
2019-03-11T21:52:53.956Z,2.70
2019-03-11T21:55:23.071Z,2.70
2019-03-11T21:57:52.031Z,2.80
2019-03-11T22:00:33.682Z,2.80
2019-03-11T22:02:54.864Z,2.80
2019-03-11T22:05:23.739Z,2.80
2019-03-11T22:07:52.556Z,2.80
2019-03-11T22:10:21.817Z,2.90
2019-03-11T22:12:50.716Z,3.00
2019-03-11T22:15:24.003Z,3.00
2019-03-11T22:17:52.872Z,3.00
2019-03-11T22:20:21.719Z,3.00
2019-03-11T22:22:50.879Z,2.90
2019-03-11T22:25:20.713Z,2.90
2019-03-11T22:27:49.756Z,2.90
2019-03-11T22:30:22.529Z,2.90
2019-03-11T22:32:51.453Z,2.90
2019-03-11T22:35:20.255Z,2.90
2019-03-11T22:37:49.137Z,2.80
2019-03-11T22:40:18.865Z,2.80
2019-03-11T22:42:47.750Z,2.70
2019-03-11T22:45:20.036Z,2.70
2019-03-11T22:47:49.850Z,2.70
2019-03-11T22:50:18.657Z,2.60
2019-03-11T22:52:47.778Z,2.60
2019-03-11T22:55:17.232Z,2.60
2019-03-11T22:57:46.074Z,2.60
2019-03-11T23:00:17.959Z,2.60
2019-03-11T23:02:46.798Z,2.70
2019-03-11T23:05:15.662Z,2.70
2019-03-11T23:07:44.518Z,2.70
2019-03-11T23:10:13.367Z,2.80
2019-03-11T23:12:42.219Z,2.80
2019-03-11T23:15:11.019Z,2.80
2019-03-11T23:17:39.910Z,2.80
2019-03-11T23:20:09.549Z,2.90
2019-03-11T23:22:38.359Z,2.80
2019-03-11T23:25:08.619Z,2.80
2019-03-11T23:27:37.499Z,2.80
2019-03-11T23:30:11.985Z,2.80
2019-03-11T23:32:40.827Z,2.80
2019-03-11T23:35:09.775Z,2.80
2019-03-11T23:37:38.598Z,2.80
2019-03-11T23:40:09.492Z,2.80
2019-03-11T23:42:38.366Z,2.80
2019-03-11T23:45:11.217Z,2.90
2019-03-11T23:47:40.035Z,2.90
2019-03-11T23:50:15.533Z,2.90
2019-03-11T23:52:44.343Z,2.90
2019-03-11T23:55:13.554Z,2.90
2019-03-11T23:57:42.960Z,2.80
